Time;durP1;ratioP1;P1;durP2;ratioP2;P2;SDS_P1;SDS_P2;PMS_P1;PMS_P2;Temp;Humidity;BMP_temperature;BMP_pressure;BME280_temperature;BME280_humidity;BME280_pressure;Samples;Min_cycle;Max_cycle;Signal;HPM_P1;HPM_P2
2023/03/24 00:00:09;;;;;;;14.85;6.18;;;13.90;99.90;;;;;;5054212;28;20033;-62
2023/03/24 00:02:36;;;;;;;19.95;7.50;;;13.70;99.90;;;;;;5054879;28;20021;-62
2023/03/24 00:05:04;;;;;;;15.85;6.68;;;13.80;99.90;;;;;;5054441;28;20045;-62
2023/03/24 00:07:32;;;;;;;15.10;6.30;;;13.80;99.90;;;;;;5054310;28;20481;-62
2023/03/24 00:09:59;;;;;;;12.75;6.47;;;13.60;99.90;;;;;;5054402;28;20032;-62
2023/03/24 00:12:25;;;;;;;14.20;5.93;;;13.60;99.90;;;;;;5054319;28;20401;-62
2023/03/24 00:14:53;;;;;;;14.15;6.18;;;13.60;99.90;;;;;;5054393;28;20425;-62
2023/03/24 00:17:24;;;;;;;15.63;6.60;;;13.60;99.90;;;;;;5054165;28;20033;-63
2023/03/24 00:19:50;;;;;;;14.32;5.93;;;13.60;99.90;;;;;;5054501;28;20112;-62
2023/03/24 00:22:16;;;;;;;14.00;5.60;;;13.80;99.90;;;;;;5054197;28;20029;-62
2023/03/24 00:24:45;;;;;;;11.05;5.05;;;13.80;99.90;;;;;;5054611;28;20041;-62
2023/03/24 00:27:12;;;;;;;13.55;5.47;;;14.20;99.90;;;;;;5053196;28;20036;-61
2023/03/24 00:29:39;;;;;;;10.43;4.22;;;14.50;99.90;;;;;;5053782;28;20025;-62
2023/03/24 00:32:05;;;;;;;10.30;4.25;;;14.30;99.90;;;;;;5053788;28;20021;-62
2023/03/24 00:34:33;;;;;;;6.80;3.80;;;14.40;99.90;;;;;;5054005;28;20488;-62
2023/03/24 00:36:58;;;;;;;10.90;4.35;;;14.20;99.90;;;;;;5053780;28;20491;-62
2023/03/24 00:39:24;;;;;;;12.60;4.60;;;14.10;99.90;;;;;;5053798;28;20032;-62
2023/03/24 00:41:50;;;;;;;12.70;4.95;;;14.20;99.90;;;;;;5053472;28;20036;-62
2023/03/24 00:44:19;;;;;;;12.30;5.80;;;14.20;99.90;;;;;;5053939;28;20033;-62
2023/03/24 00:46:54;;;;;;;14.40;5.55;;;13.90;99.90;;;;;;5053672;28;20036;-62
2023/03/24 00:49:46;;;;;;;8.10;4.57;;;13.80;99.90;;;;;;5053572;28;20512;-62
2023/03/24 00:52:21;;;;;;;9.85;4.72;;;13.80;99.90;;;;;;5053590;28;20439;-62
2023/03/24 00:54:48;;;;;;;11.90;5.18;;;13.60;99.90;;;;;;5053528;28;20033;-62
2023/03/24 00:57:21;;;;;;;10.30;4.88;;;13.60;99.90;;;;;;5053175;28;20162;-62
2023/03/24 00:59:48;;;;;;;10.03;5.33;;;13.60;99.90;;;;;;5053288;28;20485;-62
2023/03/24 01:02:18;;;;;;;8.75;4.95;;;13.60;99.90;;;;;;5053731;28;20020;-62
2023/03/24 01:04:46;;;;;;;12.20;5.55;;;13.80;99.90;;;;;;5053268;28;20040;-62
2023/03/24 01:07:16;;;;;;;8.65;4.47;;;13.50;99.90;;;;;;5053336;28;20025;-62
2023/03/24 01:09:45;;;;;;;11.20;4.95;;;13.50;99.90;;;;;;5053258;28;20028;-62
2023/03/24 01:22:19;;;;;;;12.65;4.95;;;13.40;99.90;;;;;;4300867;28;20051;-63
2023/03/24 01:24:46;;;;;;;14.18;5.20;;;13.30;99.90;;;;;;5052876;28;20386;-63
2023/03/24 01:27:12;;;;;;;9.13;4.00;;;13.30;99.90;;;;;;5052965;28;20036;-63
2023/03/24 01:29:38;;;;;;;9.68;4.55;;;13.10;99.90;;;;;;5052891;28;20025;-63
2023/03/24 01:32:05;;;;;;;10.63;4.85;;;13.20;99.90;;;;;;5052750;28;20025;-63
2023/03/24 01:34:31;;;;;;;13.05;4.80;;;13.00;99.90;;;;;;5052821;28;20029;-63
2023/03/24 01:36:58;;;;;;;12.52;4.93;;;13.20;99.90;;;;;;5052440;28;20084;-63
2023/03/24 01:39:23;;;;;;;11.13;5.03;;;13.10;99.90;;;;;;5052231;28;20045;-63
2023/03/24 01:41:50;;;;;;;11.70;5.25;;;12.90;99.90;;;;;;5052647;28;20061;-63
2023/03/24 01:44:32;;;;;;;10.05;4.60;;;12.90;99.90;;;;;;5052294;28;20492;-63
2023/03/24 01:46:58;;;;;;;9.38;4.88;;;12.90;99.90;;;;;;5052656;28;20021;-63
2023/03/24 01:49:36;;;;;;;10.98;4.80;;;12.80;99.90;;;;;;5052661;28;20025;-63
2023/03/24 01:52:07;;;;;;;10.48;4.40;;;12.70;99.90;;;;;;5052718;28;20036;-63
2023/03/24 01:54:46;;;;;;;9.23;5.03;;;12.80;99.90;;;;;;5052176;28;20120;-63
2023/03/24 01:57:21;;;;;;;9.82;4.45;;;12.80;99.90;;;;;;5053208;28;20025;-63
2023/03/24 01:59:51;;;;;;;10.02;4.60;;;12.90;99.90;;;;;;5052604;28;20032;-63
2023/03/24 02:02:20;;;;;;;11.90;4.57;;;12.70;99.90;;;;;;5053043;28;20037;-62
2023/03/24 02:04:52;;;;;;;12.43;5.05;;;12.80;99.90;;;;;;5052276;28;20178;-62
2023/03/24 02:07:54;;;;;;;9.98;4.95;;;12.60;99.90;;;;;;5052248;28;20172;-63
2023/03/24 02:10:22;;;;;;;11.07;5.20;;;12.60;99.90;;;;;;5048048;28;20039;-62
2023/03/24 02:12:48;;;;;;;8.48;4.07;;;12.60;99.90;;;;;;5052169;28;20051;-62
2023/03/24 02:15:16;;;;;;;12.57;4.80;;;12.50;99.90;;;;;;5052249;28;20025;-63
2023/03/24 02:18:17;;;;;;;8.52;4.68;;;12.60;99.90;;;;;;5052451;28;20051;-62
2023/03/24 02:21:00;;;;;;;9.18;4.95;;;12.50;99.90;;;;;;5051777;28;20393;-62
2023/03/24 02:23:57;;;;;;;10.03;5.07;;;12.50;99.90;;;;;;5051680;28;20606;-62
2023/03/24 02:26:51;;;;;;;10.73;5.00;;;12.70;99.90;;;;;;5051963;28;20334;-63
2023/03/24 02:29:58;;;;;;;11.05;5.60;;;12.70;99.90;;;;;;5052057;28;20028;-62
2023/03/24 02:32:42;;;;;;;10.98;6.07;;;12.60;99.90;;;;;;5051880;28;20040;-62
2023/03/24 02:35:19;;;;;;;13.93;7.00;;;12.60;99.90;;;;;;5052249;28;20104;-63
2023/03/24 02:38:07;;;;;;;9.45;6.20;;;13.20;99.90;;;;;;5051678;28;20028;-62
2023/03/24 02:40:34;;;;;;;10.77;6.07;;;12.60;99.90;;;;;;5051858;28;20021;-62
2023/03/24 02:43:12;;;;;;;9.50;5.50;;;12.70;99.90;;;;;;5051865;28;20029;-63
2023/03/24 02:45:53;;;;;;;12.43;6.10;;;12.60;99.90;;;;;;5052195;28;20033;-63
2023/03/24 02:48:19;;;;;;;11.35;5.72;;;12.70;99.90;;;;;;5051625;28;20499;-63
2023/03/24 02:51:02;;;;;;;9.23;5.13;;;12.60;99.90;;;;;;5055686;28;20071;-62
2023/03/24 02:53:40;;;;;;;12.63;5.07;;;12.70;99.90;;;;;;5055694;28;20370;-62
2023/03/24 02:56:28;;;;;;;11.60;6.05;;;13.00;99.90;;;;;;5055594;28;20033;-62
2023/03/24 02:59:29;;;;;;;11.02;5.20;;;12.60;99.90;;;;;;5055696;28;20052;-62
2023/03/24 03:02:03;;;;;;;10.93;5.55;;;12.70;99.90;;;;;;5055192;28;20045;-63
2023/03/24 03:04:38;;;;;;;8.95;4.68;;;12.70;99.90;;;;;;5055666;28;20035;-62
2023/03/24 03:07:08;;;;;;;13.60;4.60;;;12.60;99.90;;;;;;5055157;28;20499;-62
2023/03/24 03:09:39;;;;;;;11.20;5.00;;;12.50;99.90;;;;;;5055643;28;20040;-63
2023/03/24 03:12:09;;;;;;;9.80;4.40;;;12.70;99.90;;;;;;5055391;28;20020;-62
2023/03/24 03:14:44;;;;;;;10.65;5.00;;;12.40;99.90;;;;;;5055567;28;20021;-62
2023/03/24 03:17:24;;;;;;;11.07;5.10;;;12.40;99.90;;;;;;5055946;28;20025;-62
2023/03/24 03:20:05;;;;;;;11.45;4.80;;;12.50;99.90;;;;;;5055223;28;20029;-63
2023/03/24 03:22:41;;;;;;;12.73;5.50;;;12.40;99.90;;;;;;5055294;28;20048;-62
2023/03/24 03:25:10;;;;;;;10.27;4.70;;;12.60;99.90;;;;;;5055346;28;20116;-62
2023/03/24 03:27:39;;;;;;;10.45;4.93;;;12.40;99.90;;;;;;5055848;28;20025;-62
2023/03/24 03:30:13;;;;;;;10.68;5.43;;;12.30;99.90;;;;;;5055337;28;20397;-63
2023/03/24 03:32:43;;;;;;;11.38;6.13;;;12.30;99.90;;;;;;5054729;28;20032;-63
2023/03/24 03:35:18;;;;;;;11.73;5.50;;;12.40;99.90;;;;;;5055803;28;20055;-62
2023/03/24 03:37:56;;;;;;;13.00;5.80;;;12.40;99.90;;;;;;5054969;28;20025;-62
2023/03/24 03:40:28;;;;;;;9.82;5.65;;;12.40;99.90;;;;;;5054864;28;20055;-62
2023/03/24 03:42:54;;;;;;;13.63;5.80;;;12.30;99.90;;;;;;5055087;28;20450;-62
2023/03/24 03:45:20;;;;;;;12.90;5.88;;;12.30;99.90;;;;;;5054472;28;20068;-62
2023/03/24 03:47:46;;;;;;;12.98;5.78;;;12.50;99.90;;;;;;5055190;28;20104;-62
2023/03/24 03:50:12;;;;;;;11.73;6.00;;;12.40;99.90;;;;;;5054370;28;20474;-62
2023/03/24 03:52:40;;;;;;;12.30;6.35;;;12.30;99.90;;;;;;5054620;28;20036;-62
2023/03/24 03:55:07;;;;;;;12.52;5.80;;;12.30;99.90;;;;;;5054739;28;20044;-62
2023/03/24 03:57:35;;;;;;;9.57;5.70;;;12.50;99.90;;;;;;5054515;28;20029;-62
2023/03/24 04:00:06;;;;;;;10.20;5.97;;;12.30;99.90;;;;;;5053101;28;20500;-62
2023/03/24 04:03:06;;;;;;;13.40;6.00;;;12.30;99.90;;;;;;5054509;28;20017;-62
2023/03/24 04:05:37;;;;;;;10.55;6.13;;;12.30;99.90;;;;;;5054343;28;20043;-62
2023/03/24 04:08:24;;;;;;;11.77;6.45;;;12.10;99.90;;;;;;5054425;28;20032;-62
2023/03/24 04:11:17;;;;;;;10.68;6.40;;;12.10;99.90;;;;;;5054899;28;20401;-62
2023/03/24 04:13:59;;;;;;;12.10;6.70;;;12.10;99.90;;;;;;5054536;28;20049;-63
2023/03/24 04:16:46;;;;;;;8.90;5.95;;;12.00;99.90;;;;;;5054303;28;20029;-63
2023/03/24 04:19:37;;;;;;;12.18;6.20;;;12.20;99.90;;;;;;5054102;28;20025;-62
2023/03/24 04:22:15;;;;;;;12.80;5.88;;;12.20;99.90;;;;;;5053938;28;20053;-62
2023/03/24 04:24:55;;;;;;;13.27;6.03;;;12.20;99.90;;;;;;5054491;28;20083;-62
2023/03/24 04:27:45;;;;;;;13.10;5.45;;;12.30;99.90;;;;;;5054059;28;20029;-62
2023/03/24 04:30:32;;;;;;;10.25;5.85;;;12.30;99.90;;;;;;5054082;28;20017;-62
2023/03/24 04:33:11;;;;;;;10.93;5.68;;;12.30;99.90;;;;;;5053939;28;20091;-62
2023/03/24 04:35:44;;;;;;;10.75;5.47;;;12.20;99.90;;;;;;5053547;28;20036;-63
2023/03/24 04:38:17;;;;;;;9.45;5.45;;;12.30;99.90;;;;;;5054185;28;20440;-62
2023/03/24 04:40:48;;;;;;;10.35;5.30;;;12.30;99.90;;;;;;5054118;28;20033;-62
2023/03/24 04:43:16;;;;;;;12.48;4.88;;;12.30;99.90;;;;;;5053870;28;20063;-62
2023/03/24 04:45:48;;;;;;;10.95;5.13;;;12.30;99.90;;;;;;5053606;28;20115;-62
2023/03/24 04:48:16;;;;;;;7.82;4.57;;;12.30;99.90;;;;;;5053333;28;20029;-62
2023/03/24 04:50:53;;;;;;;9.60;5.13;;;12.40;99.90;;;;;;5054299;28;20061;-62
2023/03/24 04:53:18;;;;;;;10.60;4.80;;;12.40;99.90;;;;;;5053818;28;20039;-62
2023/03/24 04:55:50;;;;;;;9.90;4.28;;;12.50;99.90;;;;;;5053820;28;20025;-62
2023/03/24 04:58:17;;;;;;;7.82;4.30;;;12.50;99.90;;;;;;5053673;28;20086;-62
2023/03/24 05:00:43;;;;;;;9.75;4.43;;;12.60;99.90;;;;;;5053404;28;20501;-62
2023/03/24 05:03:14;;;;;;;8.75;4.10;;;12.60;99.90;;;;;;5053144;28;20394;-62
2023/03/24 05:05:41;;;;;;;10.45;4.25;;;12.50;99.90;;;;;;5053261;28;20444;-62
2023/03/24 05:08:07;;;;;;;11.95;4.20;;;12.60;99.90;;;;;;5053353;28;20028;-62
2023/03/24 05:10:34;;;;;;;11.30;4.15;;;12.70;99.90;;;;;;5053172;28;20093;-62
2023/03/24 05:13:01;;;;;;;8.90;4.00;;;12.70;99.90;;;;;;5053240;28;20025;-62
2023/03/24 05:15:27;;;;;;;13.93;5.13;;;12.70;99.90;;;;;;5053259;28;20032;-62
2023/03/24 05:17:53;;;;;;;14.98;5.25;;;12.80;99.90;;;;;;5053088;28;20029;-62
2023/03/24 05:20:19;;;;;;;15.52;5.47;;;12.90;99.90;;;;;;5053157;28;20035;-62
2023/03/24 05:22:45;;;;;;;13.80;4.70;;;13.00;99.90;;;;;;5052689;28;20509;-63
2023/03/24 05:25:11;;;;;;;14.95;5.30;;;12.90;99.90;;;;;;5052964;28;20114;-62
2023/03/24 05:27:37;;;;;;;16.42;5.15;;;12.90;99.90;;;;;;5053064;28;20549;-62
2023/03/24 05:30:06;;;;;;;16.88;4.90;;;13.10;99.90;;;;;;5052867;28;20243;-62
2023/03/24 05:32:31;;;;;;;17.42;5.95;;;13.20;99.90;;;;;;5052474;28;20028;-63
2023/03/24 05:34:57;;;;;;;17.58;5.72;;;13.10;99.90;;;;;;5052729;28;20037;-62
2023/03/24 05:37:23;;;;;;;19.20;5.38;;;13.10;99.90;;;;;;5053120;28;20067;-62
2023/03/24 05:39:49;;;;;;;17.63;5.38;;;13.10;99.90;;;;;;5052763;28;20491;-62
2023/03/24 05:42:16;;;;;;;20.48;6.40;;;13.20;99.90;;;;;;5052538;28;20090;-62
2023/03/24 05:44:42;;;;;;;16.48;5.50;;;13.20;99.90;;;;;;5052523;28;20043;-62
2023/03/24 05:47:08;;;;;;;17.25;5.28;;;13.20;99.90;;;;;;5052096;28;20473;-62
2023/03/24 05:49:34;;;;;;;20.90;5.70;;;13.40;99.90;;;;;;5052759;28;20489;-63
2023/03/24 05:52:00;;;;;;;16.67;5.43;;;13.20;99.90;;;;;;5052651;28;20017;-62
2023/03/24 05:54:26;;;;;;;15.93;5.50;;;13.30;99.90;;;;;;5052385;28;20059;-63
2023/03/24 05:56:51;;;;;;;13.30;4.60;;;13.30;99.90;;;;;;5052470;28;20481;-62
2023/03/24 05:59:17;;;;;;;13.40;4.60;;;13.30;99.90;;;;;;5052426;28;20021;-62
2023/03/24 06:01:43;;;;;;;16.67;4.35;;;13.30;99.90;;;;;;5052146;28;20437;-62
2023/03/24 06:04:08;;;;;;;10.05;3.60;;;13.20;99.90;;;;;;5052556;28;20068;-63
2023/03/24 06:06:37;;;;;;;9.02;3.42;;;13.50;99.90;;;;;;5052370;28;20033;-62
2023/03/24 06:09:03;;;;;;;9.60;3.20;;;13.40;99.90;;;;;;5052367;28;20024;-63
2023/03/24 06:11:30;;;;;;;9.73;2.97;;;13.30;99.90;;;;;;5052635;28;20036;-63
2023/03/24 06:13:59;;;;;;;9.40;3.38;;;13.50;99.90;;;;;;5052234;28;20033;-63
2023/03/24 06:16:28;;;;;;;6.72;3.17;;;13.20;99.90;;;;;;5051880;28;20037;-63
2023/03/24 06:18:54;;;;;;;7.00;2.03;;;13.30;99.90;;;;;;5051960;28;20583;-62
2023/03/24 06:21:20;;;;;;;7.63;2.15;;;13.30;99.90;;;;;;5051554;28;20091;-60
2023/03/24 06:23:46;;;;;;;6.90;3.05;;;13.30;99.90;;;;;;5051676;28;20111;-63
2023/03/24 06:26:13;;;;;;;7.10;2.67;;;13.30;99.90;;;;;;5052287;28;20107;-61
2023/03/24 06:28:41;;;;;;;8.15;2.88;;;13.30;99.90;;;;;;5052147;28;20033;-63
2023/03/24 06:31:17;;;;;;;5.40;2.70;;;13.20;99.90;;;;;;5051106;28;20375;-61
2023/03/24 06:33:43;;;;;;;7.13;2.75;;;13.20;99.90;;;;;;5051580;28;20388;-63
2023/03/24 06:36:11;;;;;;;6.32;2.40;;;13.20;99.90;;;;;;5051922;28;20021;-63
2023/03/24 06:38:37;;;;;;;5.63;2.40;;;13.20;99.90;;;;;;5052304;28;20040;-63
2023/03/24 06:41:04;;;;;;;10.32;2.60;;;13.20;99.90;;;;;;5051944;28;20029;-63
2023/03/24 06:43:30;;;;;;;7.57;2.40;;;13.20;99.90;;;;;;5051931;28;20091;-63
2023/03/24 06:45:56;;;;;;;7.22;2.58;;;13.20;99.90;;;;;;5051482;28;20037;-63
2023/03/24 06:48:22;;;;;;;7.35;2.85;;;13.20;99.90;;;;;;5051922;28;20432;-63
2023/03/24 06:50:48;;;;;;;9.45;2.80;;;13.40;99.90;;;;;;5051939;28;20025;-62
2023/03/24 06:53:14;;;;;;;8.10;3.13;;;13.20;99.90;;;;;;5052054;28;20040;-63
2023/03/24 06:55:40;;;;;;;8.65;2.15;;;13.20;99.90;;;;;;5051689;28;20056;-63
2023/03/24 06:58:06;;;;;;;9.40;2.47;;;13.10;99.90;;;;;;5052078;28;20048;-62
2023/03/24 07:00:31;;;;;;;7.65;2.78;;;13.10;99.90;;;;;;5051381;28;20091;-63
2023/03/24 07:02:57;;;;;;;10.73;3.17;;;13.10;99.90;;;;;;5051700;28;20095;-63
2023/03/24 07:05:23;;;;;;;6.75;3.30;;;13.10;99.90;;;;;;5051762;28;20047;-63
2023/03/24 07:07:48;;;;;;;5.95;2.42;;;13.10;99.90;;;;;;5051698;28;20039;-63
2023/03/24 07:10:15;;;;;;;6.45;2.60;;;13.10;99.90;;;;;;5051969;28;20477;-62
2023/03/24 07:12:41;;;;;;;6.63;2.28;;;13.00;99.90;;;;;;5051789;28;20014;-63
2023/03/24 07:15:08;;;;;;;7.55;2.88;;;13.10;99.90;;;;;;5051332;28;20021;-63
2023/03/24 07:17:34;;;;;;;6.78;2.63;;;13.20;99.90;;;;;;5051421;28;20033;-63
2023/03/24 07:20:00;;;;;;;7.80;2.30;;;13.10;99.90;;;;;;5051203;28;20033;-63
2023/03/24 07:22:26;;;;;;;6.25;2.53;;;13.10;99.90;;;;;;5051726;28;20190;-63
2023/03/24 07:24:52;;;;;;;8.25;2.60;;;13.20;99.90;;;;;;5051465;28;20061;-63
2023/03/24 07:27:17;;;;;;;7.45;2.85;;;13.20;99.90;;;;;;5051490;28;20108;-63
2023/03/24 07:29:43;;;;;;;7.72;2.67;;;13.10;99.90;;;;;;5051166;28;20052;-63
2023/03/24 07:32:09;;;;;;;9.93;2.67;;;13.10;99.90;;;;;;5050456;28;20461;-63
2023/03/24 07:34:38;;;;;;;7.03;2.65;;;13.40;99.90;;;;;;5051498;28;20029;-63
2023/03/24 07:37:04;;;;;;;9.45;2.47;;;13.20;99.90;;;;;;5053795;28;20051;-63
2023/03/24 07:39:30;;;;;;;18.30;4.55;;;13.20;99.90;;;;;;5054895;28;20025;-63
2023/03/24 07:41:56;;;;;;;25.00;4.20;;;13.10;99.90;;;;;;5055095;28;20025;-64
2023/03/24 07:44:21;;;;;;;21.75;4.35;;;13.10;99.90;;;;;;5054424;28;20061;-64
2023/03/24 07:46:47;;;;;;;17.17;4.00;;;13.20;99.90;;;;;;5055135;28;20105;-63
2023/03/24 07:49:14;;;;;;;11.98;3.20;;;13.10;99.90;;;;;;5054426;28;20056;-64
2023/03/24 07:51:39;;;;;;;32.08;4.63;;;13.00;99.90;;;;;;5054020;28;20096;-63
2023/03/24 07:54:05;;;;;;;29.40;4.80;;;13.00;99.90;;;;;;5054474;28;20095;-63
2023/03/24 07:56:31;;;;;;;21.48;4.38;;;13.00;99.90;;;;;;5054200;28;20021;-62
2023/03/24 07:58:57;;;;;;;28.83;4.85;;;13.00;99.90;;;;;;5053567;28;20472;-61
2023/03/24 08:01:22;;;;;;;22.25;4.30;;;13.10;99.90;;;;;;5051652;28;20024;-62
2023/03/24 08:03:53;;;;;;;34.72;5.30;;;13.10;99.90;;;;;;5054008;28;20477;-62
2023/03/24 08:06:18;;;;;;;11.90;2.95;;;13.00;99.90;;;;;;5053972;28;20083;-61
2023/03/24 08:08:44;;;;;;;27.50;5.00;;;13.00;99.90;;;;;;5053866;28;20029;-62
2023/03/24 08:11:10;;;;;;;11.73;2.70;;;12.80;99.90;;;;;;5053374;28;20032;-62
2023/03/24 08:13:36;;;;;;;11.77;2.90;;;12.80;99.90;;;;;;5053664;28;20063;-62
2023/03/24 08:16:03;;;;;;;9.65;2.60;;;12.90;99.90;;;;;;5054761;28;20042;-63
2023/03/24 08:18:31;;;;;;;6.40;2.53;;;12.80;99.90;;;;;;5053817;28;20033;-63
2023/03/24 08:20:58;;;;;;;7.60;2.50;;;12.80;99.90;;;;;;5053424;28;20025;-63
2023/03/24 08:23:24;;;;;;;8.73;2.97;;;12.80;99.90;;;;;;5054012;28;20033;-63
2023/03/24 08:25:50;;;;;;;9.00;3.42;;;12.80;99.90;;;;;;5054203;28;20124;-63
2023/03/24 08:28:16;;;;;;;8.90;2.67;;;13.00;99.90;;;;;;5053991;28;20410;-63
2023/03/24 08:30:42;;;;;;;6.85;2.42;;;13.00;99.90;;;;;;5054211;28;20370;-63
2023/03/24 08:33:12;;;;;;;10.07;2.75;;;13.00;99.90;;;;;;5054017;28;20032;-64
2023/03/24 08:35:39;;;;;;;10.40;2.88;;;12.90;99.90;;;;;;5052545;28;20546;-63
2023/03/24 08:38:10;;;;;;;10.02;2.72;;;13.10;99.90;;;;;;5053834;28;20048;-63
2023/03/24 08:40:38;;;;;;;10.90;2.95;;;13.10;99.90;;;;;;5053518;28;20030;-63
2023/03/24 08:43:07;;;;;;;9.48;2.95;;;13.10;99.90;;;;;;5053752;28;20100;-64
2023/03/24 08:45:33;;;;;;;12.10;3.13;;;13.00;99.90;;;;;;5054104;28;20086;-64
2023/03/24 08:48:02;;;;;;;12.23;3.00;;;12.80;99.90;;;;;;5053441;28;20028;-63
2023/03/24 08:50:33;;;;;;;11.00;3.05;;;12.80;99.90;;;;;;5053506;28;20478;-63
2023/03/24 08:52:59;;;;;;;12.60;3.30;;;12.80;99.90;;;;;;5053993;28;20418;-63
2023/03/24 08:55:25;;;;;;;8.75;3.03;;;12.90;99.90;;;;;;5053187;28;20035;-63
2023/03/24 08:57:51;;;;;;;11.00;3.08;;;12.80;99.90;;;;;;5053470;28;20017;-63
2023/03/24 09:00:19;;;;;;;12.93;3.70;;;12.80;99.90;;;;;;5053956;28;20040;-63
2023/03/24 09:02:50;;;;;;;10.27;3.30;;;12.80;99.90;;;;;;5052985;28;20032;-63
2023/03/24 09:05:18;;;;;;;9.32;2.80;;;12.80;99.90;;;;;;5053628;28;20037;-63
2023/03/24 09:07:44;;;;;;;12.52;3.17;;;12.80;99.90;;;;;;5053432;28;20032;-63
2023/03/24 09:10:11;;;;;;;10.95;3.08;;;12.80;99.90;;;;;;5052924;28;20096;-63
2023/03/24 09:12:38;;;;;;;9.60;3.03;;;12.60;99.90;;;;;;5053260;28;20017;-64
2023/03/24 09:15:07;;;;;;;13.32;3.53;;;12.70;99.90;;;;;;5053199;28;20056;-64
2023/03/24 09:17:34;;;;;;;10.32;3.05;;;12.60;99.90;;;;;;5053206;28;20363;-63
2023/03/24 09:19:59;;;;;;;10.32;3.15;;;12.70;99.90;;;;;;5053317;28;20029;-63
2023/03/24 09:22:25;;;;;;;9.90;3.03;;;12.40;99.90;;;;;;5052854;28;20095;-63
2023/03/24 09:24:52;;;;;;;10.48;3.05;;;12.40;99.90;;;;;;5052695;28;20068;-63
2023/03/24 09:27:18;;;;;;;12.85;3.35;;;12.40;99.90;;;;;;5052905;28;20017;-63
2023/03/24 09:29:43;;;;;;;7.93;3.20;;;12.60;99.90;;;;;;5053005;28;20024;-63
2023/03/24 09:32:09;;;;;;;10.30;3.10;;;12.80;99.90;;;;;;5052805;28;20029;-63
2023/03/24 09:34:37;;;;;;;11.38;3.05;;;12.90;99.90;;;;;;5053192;28;20112;-63
2023/03/24 09:37:04;;;;;;;13.30;2.88;;;13.10;99.90;;;;;;5052825;28;20434;-63
2023/03/24 09:39:30;;;;;;;7.63;2.70;;;13.40;99.90;;;;;;5052350;28;20028;-63
2023/03/24 09:41:56;;;;;;;8.93;2.60;;;13.70;99.90;;;;;;5052630;28;20029;-63
2023/03/24 09:44:50;;;;;;;9.23;2.90;;;13.80;99.90;;;;;;5053111;28;20036;-63
2023/03/24 09:47:29;;;;;;;7.75;2.60;;;14.40;99.90;;;;;;5052614;28;20374;-63
2023/03/24 09:50:05;;;;;;;9.75;2.90;;;14.50;99.90;;;;;;5052467;28;20028;-63
2023/03/24 09:52:38;;;;;;;8.20;2.70;;;15.00;99.90;;;;;;5052618;28;20032;-64
2023/03/24 09:55:05;;;;;;;8.65;2.50;;;14.90;99.90;;;;;;5052499;28;20358;-63
2023/03/24 09:57:37;;;;;;;9.93;2.65;;;14.50;99.90;;;;;;5052504;28;20378;-63
2023/03/24 10:00:25;;;;;;;8.13;2.58;;;14.90;99.90;;;;;;5051942;28;20022;-63
2023/03/24 10:02:51;;;;;;;11.73;3.10;;;15.80;99.90;;;;;;5052998;28;20382;-63
2023/03/24 10:05:43;;;;;;;8.45;2.80;;;15.70;99.90;;;;;;5052323;28;20045;-63
2023/03/24 10:08:21;;;;;;;8.77;2.88;;;15.80;99.90;;;;;;5051799;28;20044;-63
2023/03/24 10:11:09;;;;;;;9.20;2.90;;;15.90;99.90;;;;;;5052472;28;20029;-63
2023/03/24 10:14:02;;;;;;;6.88;2.53;;;15.80;99.90;;;;;;5052275;28;20077;-63
2023/03/24 10:16:53;;;;;;;13.95;3.53;;;15.50;99.90;;;;;;5052639;28;20436;-64
2023/03/24 10:19:49;;;;;;;10.18;2.90;;;15.50;99.90;;;;;;5052366;28;20547;-64
2023/03/24 10:22:24;;;;;;;10.15;2.80;;;15.60;99.90;;;;;;5051505;28;20037;-63
2023/03/24 10:25:25;;;;;;;13.68;3.00;;;15.70;99.90;;;;;;5051856;28;20037;-64
2023/03/24 10:28:00;;;;;;;10.50;3.15;;;15.50;99.90;;;;;;5052216;28;20032;-63
2023/03/24 10:30:33;;;;;;;13.52;3.55;;;15.60;99.90;;;;;;5052073;28;20057;-64
2023/03/24 10:32:58;;;;;;;9.55;2.83;;;15.40;99.90;;;;;;5052385;28;20393;-64
2023/03/24 10:35:28;;;;;;;11.02;3.10;;;15.50;99.90;;;;;;5052066;28;20032;-64
2023/03/24 10:37:57;;;;;;;10.18;3.22;;;15.20;99.90;;;;;;5051708;28;20036;-64
2023/03/24 10:40:32;;;;;;;12.88;2.80;;;15.20;99.90;;;;;;5051862;28;20021;-63
2023/03/24 10:43:00;;;;;;;9.57;3.00;;;15.40;99.90;;;;;;5051885;28;20032;-64
2023/03/24 10:45:32;;;;;;;11.52;3.33;;;15.60;99.90;;;;;;5052262;28;20041;-64
2023/03/24 10:48:01;;;;;;;11.25;3.28;;;16.10;99.90;;;;;;5051841;28;20024;-64
2023/03/24 10:50:29;;;;;;;8.85;3.00;;;16.80;99.90;;;;;;5051712;28;20032;-64
2023/03/24 10:52:55;;;;;;;12.20;3.53;;;16.80;99.90;;;;;;5051517;28;20021;-64
2023/03/24 10:55:28;;;;;;;14.52;3.47;;;16.80;99.90;;;;;;5051826;28;20413;-64
2023/03/24 10:57:56;;;;;;;11.80;3.10;;;16.90;99.90;;;;;;5051977;28;20441;-64
2023/03/24 11:00:30;;;;;;;11.35;2.85;;;17.70;99.90;;;;;;5051597;28;20035;-64
2023/03/24 11:02:58;;;;;;;11.63;3.28;;;18.00;99.90;;;;;;5052109;28;20021;-64
2023/03/24 11:05:33;;;;;;;13.98;3.85;;;17.70;99.90;;;;;;5051284;28;20033;-64
2023/03/24 11:08:30;;;;;;;13.05;3.45;;;16.70;99.90;;;;;;5051621;28;20029;-64
2023/03/24 11:10:56;;;;;;;10.13;3.17;;;16.70;99.90;;;;;;5054322;28;20108;-64
2023/03/24 11:13:22;;;;;;;14.15;4.03;;;16.80;99.90;;;;;;5055519;28;20031;-64
2023/03/24 11:16:04;;;;;;;12.65;3.65;;;16.80;99.90;;;;;;5055470;28;20025;-63
2023/03/24 11:18:30;;;;;;;15.35;6.18;;;16.70;99.90;;;;;;5055477;28;20455;-64
2023/03/24 11:20:59;;;;;;;14.05;4.18;;;17.10;99.90;;;;;;5054804;28;20032;-64
2023/03/24 11:23:44;;;;;;;16.65;4.38;;;17.20;99.90;;;;;;5055503;28;20079;-64
2023/03/24 11:26:14;;;;;;;15.63;3.85;;;17.20;99.90;;;;;;5055140;28;20033;-64
2023/03/24 11:28:46;;;;;;;14.43;3.90;;;17.60;99.90;;;;;;5055348;28;20022;-64
2023/03/24 11:31:23;;;;;;;13.80;3.75;;;17.80;99.90;;;;;;5055120;28;20044;-64
2023/03/24 11:34:15;;;;;;;13.23;3.70;;;18.40;99.90;;;;;;5055212;28;20025;-64
2023/03/24 11:37:13;;;;;;;18.25;3.95;;;18.20;99.90;;;;;;5055017;28;20024;-64
2023/03/24 11:39:39;;;;;;;14.20;3.67;;;18.00;99.90;;;;;;5047613;28;20521;-64
2023/03/24 11:42:15;;;;;;;15.35;4.28;;;18.50;99.90;;;;;;5054163;28;20025;-64
2023/03/24 11:44:44;;;;;;;17.55;4.43;;;18.50;99.90;;;;;;5055024;28;20402;-65
2023/03/24 11:47:28;;;;;;;17.30;4.13;;;18.20;99.90;;;;;;5055007;28;20016;-64
2023/03/24 11:50:09;;;;;;;15.23;3.87;;;18.10;99.90;;;;;;5054369;28;20044;-64
2023/03/24 11:52:49;;;;;;;20.85;4.55;;;18.00;99.90;;;;;;5054618;28;20033;-64
2023/03/24 11:55:21;;;;;;;18.58;4.88;;;17.80;99.90;;;;;;5054438;28;20021;-64
2023/03/24 11:57:59;;;;;;;18.98;4.03;;;17.50;99.90;;;;;;5055227;28;20492;-63
2023/03/24 12:00:38;;;;;;;16.90;3.92;;;17.40;99.90;;;;;;5054616;28;20032;-64
2023/03/24 12:03:41;;;;;;;15.60;3.83;;;17.30;99.90;;;;;;5054577;28;20032;-65
2023/03/24 12:06:18;;;;;;;19.63;4.82;;;17.70;99.90;;;;;;5054270;28;20107;-64
2023/03/24 12:09:14;;;;;;;17.20;4.28;;;17.90;99.90;;;;;;5054501;28;20056;-64
2023/03/24 12:11:59;;;;;;;14.88;4.32;;;17.80;99.90;;;;;;5054308;28;20446;-64
2023/03/24 12:15:03;;;;;;;16.83;4.35;;;17.90;99.90;;;;;;5054404;28;20501;-64
2023/03/24 12:17:39;;;;;;;14.75;4.57;;;17.80;99.90;;;;;;5054343;28;20052;-64
2023/03/24 12:20:28;;;;;;;15.82;4.05;;;18.00;99.90;;;;;;5052681;28;20393;-64
2023/03/24 12:23:51;;;;;;;15.07;4.63;;;18.10;99.90;;;;;;5053252;28;20129;-64
2023/03/24 12:26:27;;;;;;;18.17;4.60;;;17.40;99.90;;;;;;5051887;28;20572;-63
2023/03/24 12:29:22;;;;;;;19.10;5.05;;;17.40;99.90;;;;;;5054228;28;20051;-65
2023/03/24 12:32:07;;;;;;;19.17;4.40;;;17.30;99.90;;;;;;5054144;28;20553;-64
2023/03/24 12:34:54;;;;;;;18.15;4.82;;;17.20;99.90;;;;;;5053017;28;20436;-64
2023/03/24 12:37:35;;;;;;;19.85;4.85;;;17.00;99.90;;;;;;5054004;28;20027;-64
2023/03/24 12:40:25;;;;;;;15.98;4.38;;;17.30;99.90;;;;;;5053917;28;20029;-65
2023/03/24 12:43:06;;;;;;;16.85;4.22;;;17.10;99.90;;;;;;5053791;28;20485;-64
2023/03/24 12:45:38;;;;;;;17.90;4.53;;;17.60;99.90;;;;;;5053884;28;20111;-64
2023/03/24 12:48:13;;;;;;;17.83;4.68;;;18.30;99.90;;;;;;5053729;28;20028;-64
2023/03/24 12:50:39;;;;;;;17.00;4.43;;;18.30;99.90;;;;;;5033701;28;20033;-64
2023/03/24 12:53:22;;;;;;;20.15;4.90;;;18.40;99.90;;;;;;5033787;28;20017;-64
2023/03/24 12:55:53;;;;;;;14.95;4.15;;;18.30;99.90;;;;;;5033729;28;20033;-64
2023/03/24 12:58:32;;;;;;;17.38;4.72;;;18.60;99.90;;;;;;5033982;28;20120;-64
2023/03/24 13:01:14;;;;;;;15.73;4.22;;;18.40;99.90;;;;;;5033388;28;20021;-63
2023/03/24 13:03:45;;;;;;;14.65;4.20;;;18.40;99.90;;;;;;5033484;28;20025;-64
2023/03/24 13:06:14;;;;;;;17.40;4.53;;;18.00;99.90;;;;;;5033392;28;20033;-65
2023/03/24 13:08:44;;;;;;;18.25;4.50;;;18.20;99.90;;;;;;5033930;28;20029;-65
2023/03/24 13:11:16;;;;;;;15.90;4.43;;;18.20;99.90;;;;;;5033277;28;20105;-65
2023/03/24 13:13:43;;;;;;;15.02;4.10;;;18.50;99.90;;;;;;5033456;28;20021;-64
2023/03/24 13:16:18;;;;;;;15.68;4.10;;;18.80;99.90;;;;;;5032897;28;20490;-65